Time;durP1;ratioP1;P1;durP2;ratioP2;P2;SDS_P1;SDS_P2;PMS_P1;PMS_P2;Temp;Humidity;BMP_temperature;BMP_pressure;BME280_temperature;BME280_humidity;BME280_pressure;Samples;Min_cycle;Max_cycle;Signal;HPM_P1;HPM_P2
2024/02/16 02:02:46;;;;;;;5.35;3.60;;;;;;;;;;2645610;23;20042;-84
2024/02/16 02:05:12;;;;;;;7.18;4.05;;;;;;;;;;4986832;28;20054;-83
2024/02/16 02:07:37;;;;;;;6.47;4.03;;;;;;;;;;5001394;28;20049;-83
2024/02/16 02:10:03;;;;;;;6.35;3.97;;;;;;;;;;4986566;28;20069;-83
2024/02/16 02:12:29;;;;;;;6.82;3.75;;;;;;;;;;5004305;28;20033;-83
2024/02/16 02:14:54;;;;;;;6.90;3.88;;;;;;;;;;4995927;28;20443;-83
2024/02/16 02:17:19;;;;;;;5.53;3.55;;;;;;;;;;5005692;28;20088;-83
2024/02/16 02:19:45;;;;;;;6.75;3.78;;;;;;;;;;4992873;28;20028;-83
2024/02/16 02:22:15;;;;;;;5.55;3.72;;;;;;;;;;4984695;28;20034;-83
2024/02/16 02:24:40;;;;;;;7.15;3.65;;;;;;;;;;4987173;28;20484;-83
2024/02/16 02:27:06;;;;;;;10.50;3.88;;;;;;;;;;4981016;28;20053;-83
2024/02/16 02:29:31;;;;;;;7.35;3.80;;;;;;;;;;5007301;28;20030;-83
2024/02/16 02:31:56;;;;;;;7.63;3.70;;;;;;;;;;5002955;28;20022;-83
2024/02/16 02:34:22;;;;;;;5.35;3.60;;;;;;;;;;5004067;28;20033;-83
2024/02/16 02:36:48;;;;;;;6.35;3.67;;;;;;;;;;4993800;28;20037;-83
2024/02/16 02:39:14;;;;;;;6.53;3.75;;;;;;;;;;4989780;28;20070;-83
2024/02/16 02:41:39;;;;;;;8.68;4.03;;;;;;;;;;4992855;28;20034;-84
2024/02/16 02:44:05;;;;;;;5.53;3.80;;;;;;;;;;5002310;28;20060;-83
2024/02/16 02:46:30;;;;;;;6.40;3.92;;;;;;;;;;5001128;28;20033;-83
2024/02/16 02:48:56;;;;;;;6.13;3.80;;;;;;;;;;4997208;28;20080;-83
2024/02/16 02:51:21;;;;;;;5.35;3.63;;;;;;;;;;5010699;28;20044;-83
2024/02/16 02:53:47;;;;;;;7.60;3.60;;;;;;;;;;4993562;28;20022;-83
2024/02/16 02:56:12;;;;;;;6.03;3.90;;;;;;;;;;4983304;28;20022;-83
2024/02/16 02:58:40;;;;;;;7.00;4.00;;;;;;;;;;4969286;28;20022;-83
2024/02/16 03:01:07;;;;;;;7.10;3.53;;;;;;;;;;4985456;28;20030;-83
2024/02/16 03:03:33;;;;;;;5.78;3.50;;;;;;;;;;4978416;28;20037;-83
2024/02/16 03:05:59;;;;;;;6.03;3.50;;;;;;;;;;4967531;28;20027;-83
2024/02/16 03:08:25;;;;;;;6.47;3.53;;;;;;;;;;4967861;28;20077;-83
2024/02/16 03:10:50;;;;;;;6.07;3.58;;;;;;;;;;4977811;28;20030;-79
2024/02/16 03:13:18;;;;;;;6.43;3.63;;;;;;;;;;4981763;28;20042;-79
2024/02/16 03:15:43;;;;;;;11.40;4.07;;;;;;;;;;4975231;28;20026;-79
2024/02/16 03:18:09;;;;;;;7.15;4.25;;;;;;;;;;4971515;28;20033;-79
2024/02/16 03:20:35;;;;;;;7.32;3.53;;;;;;;;;;4984347;28;20023;-80
2024/02/16 03:23:01;;;;;;;7.32;3.50;;;;;;;;;;4986198;28;20031;-79
2024/02/16 03:25:26;;;;;;;5.32;3.65;;;;;;;;;;4958668;28;20073;-80
2024/02/16 03:27:55;;;;;;;4.95;3.47;;;;;;;;;;4958127;28;20547;-79
2024/02/16 03:30:21;;;;;;;8.85;4.03;;;;;;;;;;4963027;28;20035;-79
2024/02/16 03:32:50;;;;;;;6.18;3.97;;;;;;;;;;4979226;28;20030;-79
2024/02/16 03:35:16;;;;;;;7.18;3.60;;;;;;;;;;4970712;28;20038;-80
2024/02/16 03:37:42;;;;;;;8.68;3.58;;;;;;;;;;4986312;28;20118;-79
2024/02/16 03:40:08;;;;;;;6.20;3.67;;;;;;;;;;4979003;28;20034;-79
2024/02/16 03:42:34;;;;;;;7.00;4.05;;;;;;;;;;4966728;28;20050;-80
2024/02/16 03:44:59;;;;;;;6.25;3.88;;;;;;;;;;4983529;28;20023;-80
2024/02/16 03:47:25;;;;;;;5.80;3.33;;;;;;;;;;4974768;28;20117;-79
2024/02/16 03:49:50;;;;;;;6.80;3.53;;;;;;;;;;4971423;28;20389;-79
2024/02/16 03:52:16;;;;;;;5.85;3.50;;;;;;;;;;4981507;28;20060;-80
2024/02/16 03:54:43;;;;;;;5.20;3.35;;;;;;;;;;4989481;28;20026;-80
2024/02/16 03:57:11;;;;;;;9.10;3.70;;;;;;;;;;4969004;28;20023;-79
2024/02/16 03:59:37;;;;;;;6.38;3.15;;;;;;;;;;4982975;28;20035;-79
2024/02/16 04:02:02;;;;;;;6.95;3.45;;;;;;;;;;4982796;28;20506;-80
2024/02/16 04:04:28;;;;;;;6.25;3.60;;;;;;;;;;4983647;28;20483;-80
2024/02/16 04:06:53;;;;;;;7.53;3.63;;;;;;;;;;4995598;28;20091;-80
2024/02/16 04:09:18;;;;;;;7.20;3.83;;;;;;;;;;4999462;28;20031;-79
2024/02/16 04:11:46;;;;;;;6.70;3.70;;;;;;;;;;4975640;28;20060;-82
2024/02/16 04:14:11;;;;;;;5.32;3.28;;;;;;;;;;4961708;28;20114;-79
2024/02/16 04:16:37;;;;;;;5.80;3.35;;;;;;;;;;4988306;28;20444;-79
2024/02/16 04:19:02;;;;;;;5.80;3.33;;;;;;;;;;4993405;28;20069;-80
2024/02/16 04:21:28;;;;;;;6.10;3.88;;;;;;;;;;4990900;28;20026;-83
2024/02/16 04:23:53;;;;;;;6.72;3.75;;;;;;;;;;4980543;28;20125;-83
2024/02/16 04:26:19;;;;;;;5.97;3.40;;;;;;;;;;4978649;28;20389;-83
2024/02/16 04:28:44;;;;;;;5.72;3.30;;;;;;;;;;4993261;28;20033;-83
2024/02/16 04:31:09;;;;;;;6.50;3.25;;;;;;;;;;4972424;28;20054;-83
2024/02/16 04:33:35;;;;;;;7.97;3.33;;;;;;;;;;4979650;28;20120;-83
2024/02/16 04:36:00;;;;;;;5.80;3.38;;;;;;;;;;4975559;28;20050;-83
2024/02/16 04:38:25;;;;;;;6.15;3.63;;;;;;;;;;4967266;28;20116;-83
2024/02/16 04:40:51;;;;;;;5.70;3.45;;;;;;;;;;4995978;28;20022;-83
2024/02/16 04:43:17;;;;;;;5.35;3.33;;;;;;;;;;4964052;28;20057;-83
2024/02/16 04:45:43;;;;;;;5.88;3.10;;;;;;;;;;4972626;28;20029;-83
2024/02/16 04:48:08;;;;;;;6.65;3.58;;;;;;;;;;4990467;28;20039;-83
2024/02/16 04:50:35;;;;;;;6.25;3.42;;;;;;;;;;4963967;28;20381;-83
2024/02/16 04:53:03;;;;;;;5.63;3.33;;;;;;;;;;4964318;28;20033;-84
2024/02/16 04:55:29;;;;;;;8.23;3.40;;;;;;;;;;4980012;28;20109;-84
2024/02/16 04:57:55;;;;;;;5.45;3.38;;;;;;;;;;4979777;28;20026;-82
2024/02/16 05:00:21;;;;;;;8.82;3.40;;;;;;;;;;4976414;28;20089;-83
2024/02/16 05:02:46;;;;;;;5.03;3.33;;;;;;;;;;4979164;28;20052;-85
2024/02/16 05:05:12;;;;;;;5.38;3.13;;;;;;;;;;4979986;28;20034;-83
2024/02/16 05:07:37;;;;;;;6.55;3.03;;;;;;;;;;4982001;28;21295;-85
2024/02/16 05:10:03;;;;;;;5.97;3.50;;;;;;;;;;4980585;28;20045;-83
2024/02/16 05:12:29;;;;;;;6.03;3.17;;;;;;;;;;4982088;28;20113;-83
2024/02/16 05:14:54;;;;;;;7.30;3.20;;;;;;;;;;4984563;28;20052;-83
2024/02/16 05:17:20;;;;;;;5.22;3.10;;;;;;;;;;4979793;28;20035;-83
2024/02/16 05:19:46;;;;;;;6.70;3.35;;;;;;;;;;4979057;28;20468;-83
2024/02/16 05:22:11;;;;;;;4.68;3.08;;;;;;;;;;4968253;28;20118;-83
2024/02/16 05:24:37;;;;;;;4.72;3.30;;;;;;;;;;4989677;28;20035;-83
2024/02/16 05:27:02;;;;;;;5.53;3.17;;;;;;;;;;4961807;28;20037;-83
2024/02/16 05:29:28;;;;;;;5.00;3.15;;;;;;;;;;4988232;28;20027;-82
2024/02/16 05:31:53;;;;;;;6.90;3.20;;;;;;;;;;4964413;28;20044;-79
2024/02/16 05:34:19;;;;;;;5.03;3.20;;;;;;;;;;4958741;28;20429;-81
2024/02/16 05:36:44;;;;;;;6.13;3.30;;;;;;;;;;4975136;28;20061;-79
2024/02/16 05:39:31;;;;;;;5.32;3.30;;;;;;;;;;4977458;28;20374;-79
2024/02/16 05:41:56;;;;;;;4.93;3.13;;;;;;;;;;4976199;28;20543;-79
2024/02/16 05:44:21;;;;;;;5.88;3.22;;;;;;;;;;4967444;28;20034;-81
2024/02/16 05:46:47;;;;;;;5.10;3.10;;;;;;;;;;4980570;28;20022;-79
2024/02/16 05:49:14;;;;;;;5.88;3.33;;;;;;;;;;4965007;28;20031;-79
2024/02/16 05:51:40;;;;;;;6.32;3.03;;;;;;;;;;4976759;28;20034;-79
2024/02/16 05:54:07;;;;;;;5.65;3.33;;;;;;;;;;4978757;28;20049;-79
2024/02/16 05:56:39;;;;;;;4.80;3.25;;;;;;;;;;4969000;28;20030;-79
2024/02/16 05:59:05;;;;;;;5.22;3.13;;;;;;;;;;4964384;28;20026;-79
2024/02/16 06:01:31;;;;;;;5.43;3.40;;;;;;;;;;4961842;28;20035;-79
2024/02/16 06:03:56;;;;;;;5.57;3.33;;;;;;;;;;4979702;28;20027;-79
2024/02/16 06:06:22;;;;;;;7.32;4.10;;;;;;;;;;4962993;28;20131;-79
2024/02/16 06:08:47;;;;;;;10.75;3.47;;;;;;;;;;4980128;28;20019;-79
2024/02/16 06:11:12;;;;;;;4.93;3.15;;;;;;;;;;4981167;28;20072;-80
2024/02/16 06:13:39;;;;;;;5.70;3.08;;;;;;;;;;4975781;28;20026;-79
2024/02/16 06:16:08;;;;;;;6.15;3.33;;;;;;;;;;4978391;28;20034;-79
2024/02/16 06:18:34;;;;;;;5.63;3.20;;;;;;;;;;4983051;28;20039;-79
2024/02/16 06:21:00;;;;;;;5.75;3.13;;;;;;;;;;4961405;28;20037;-80
2024/02/16 06:23:25;;;;;;;6.10;2.97;;;;;;;;;;4983706;28;20111;-80
2024/02/16 06:25:51;;;;;;;5.10;2.90;;;;;;;;;;4985507;28;20033;-80
2024/02/16 06:28:16;;;;;;;6.65;3.13;;;;;;;;;;4982075;28;20027;-80
2024/02/16 06:30:41;;;;;;;4.65;2.90;;;;;;;;;;4983716;28;20404;-80
2024/02/16 06:33:07;;;;;;;7.78;3.13;;;;;;;;;;4985210;28;20484;-80
2024/02/16 06:35:32;;;;;;;5.32;2.90;;;;;;;;;;4986550;28;20030;-79
2024/02/16 06:37:58;;;;;;;6.15;3.33;;;;;;;;;;4987363;28;20069;-79
2024/02/16 06:40:26;;;;;;;7.43;3.13;;;;;;;;;;4975201;28;20037;-79
2024/02/16 06:42:51;;;;;;;6.65;3.03;;;;;;;;;;4969082;28;20041;-80
2024/02/16 06:45:17;;;;;;;7.88;3.13;;;;;;;;;;4980186;28;20031;-79
2024/02/16 06:47:42;;;;;;;4.43;2.90;;;;;;;;;;4967185;28;20037;-80
2024/02/16 06:50:08;;;;;;;6.45;3.30;;;;;;;;;;4982592;28;20027;-80
2024/02/16 06:52:34;;;;;;;5.38;3.13;;;;;;;;;;4965831;28;20026;-80
2024/02/16 06:54:59;;;;;;;6.28;3.00;;;;;;;;;;4981112;28;20045;-80
2024/02/16 06:57:25;;;;;;;7.15;3.10;;;;;;;;;;4981901;28;20033;-80
2024/02/16 06:59:52;;;;;;;6.32;3.13;;;;;;;;;;4982270;28;20038;-79
2024/02/16 07:02:18;;;;;;;6.45;3.47;;;;;;;;;;4981032;28;20073;-80
2024/02/16 07:04:45;;;;;;;5.90;2.80;;;;;;;;;;4981756;28;20023;-80
2024/02/16 07:07:11;;;;;;;4.72;3.08;;;;;;;;;;4986089;28;20035;-79
2024/02/16 07:09:36;;;;;;;6.18;3.22;;;;;;;;;;4983477;28;20033;-79
2024/02/16 07:12:02;;;;;;;12.57;3.25;;;;;;;;;;4982306;28;21616;-79
2024/02/16 07:14:28;;;;;;;5.95;3.13;;;;;;;;;;4986204;28;20480;-80
2024/02/16 07:16:53;;;;;;;6.57;3.40;;;;;;;;;;4983404;28;20037;-79
2024/02/16 07:19:19;;;;;;;5.88;3.60;;;;;;;;;;4983300;28;20464;-79
2024/02/16 07:21:44;;;;;;;8.10;3.35;;;;;;;;;;4982874;28;20042;-79
2024/02/16 07:24:10;;;;;;;7.45;3.22;;;;;;;;;;4966021;28;20031;-80
2024/02/16 07:26:36;;;;;;;5.13;3.33;;;;;;;;;;4968470;28;20026;-79
2024/02/16 07:29:02;;;;;;;7.00;3.10;;;;;;;;;;4978631;28;20077;-80
2024/02/16 07:31:33;;;;;;;6.85;3.03;;;;;;;;;;4966126;28;20428;-80
2024/02/16 07:33:58;;;;;;;7.18;3.30;;;;;;;;;;4967606;28;20401;-80
2024/02/16 07:36:24;;;;;;;5.40;3.17;;;;;;;;;;4980882;28;20554;-80
2024/02/16 07:38:49;;;;;;;7.25;3.30;;;;;;;;;;4968407;28;20023;-79
2024/02/16 07:41:14;;;;;;;6.45;2.80;;;;;;;;;;4985631;28;20472;-79
2024/02/16 07:43:40;;;;;;;5.53;3.20;;;;;;;;;;4964100;28;20035;-79
2024/02/16 07:46:05;;;;;;;6.47;3.17;;;;;;;;;;4984410;28;20444;-79
2024/02/16 07:48:31;;;;;;;5.57;3.00;;;;;;;;;;4980832;28;20058;-79
2024/02/16 07:51:02;;;;;;;4.93;2.90;;;;;;;;;;4980508;28;20456;-83
2024/02/16 07:53:27;;;;;;;7.07;3.60;;;;;;;;;;4963038;28;20114;-83
2024/02/16 07:55:53;;;;;;;6.15;3.47;;;;;;;;;;4959969;28;20113;-84
2024/02/16 07:58:18;;;;;;;7.43;3.80;;;;;;;;;;4976819;28;20077;-83
2024/02/16 08:00:43;;;;;;;6.85;3.70;;;;;;;;;;4966512;28;20041;-83
2024/02/16 08:03:09;;;;;;;7.30;3.22;;;;;;;;;;4980840;28;20058;-83
2024/02/16 08:05:35;;;;;;;4.88;3.00;;;;;;;;;;4974070;28;20041;-83
2024/02/16 08:08:00;;;;;;;8.18;3.85;;;;;;;;;;4979971;28;20035;-83
2024/02/16 08:10:26;;;;;;;6.70;3.55;;;;;;;;;;4987167;28;20038;-85
2024/02/16 08:12:52;;;;;;;7.95;3.38;;;;;;;;;;4995532;28;20542;-83
2024/02/16 08:15:22;;;;;;;7.07;3.50;;;;;;;;;;4977655;28;20025;-85
2024/02/16 08:17:49;;;;;;;7.35;3.85;;;;;;;;;;4979493;28;20077;-85
2024/02/16 08:20:15;;;;;;;9.45;3.40;;;;;;;;;;4968598;28;20054;-84
2024/02/16 08:22:40;;;;;;;7.93;3.15;;;;;;;;;;5000867;28;20059;-85
2024/02/16 08:25:06;;;;;;;5.45;3.30;;;;;;;;;;4988200;28;20028;-83
2024/02/16 08:27:32;;;;;;;7.05;3.80;;;;;;;;;;4989826;28;20030;-85
2024/02/16 08:29:58;;;;;;;8.10;3.35;;;;;;;;;;4964590;28;20403;-85
2024/02/16 08:32:23;;;;;;;7.35;3.70;;;;;;;;;;4978873;28;20058;-83
2024/02/16 08:34:49;;;;;;;6.63;3.38;;;;;;;;;;4979197;28;20026;-83
2024/02/16 08:37:16;;;;;;;7.55;3.70;;;;;;;;;;4964008;28;20030;-84
2024/02/16 08:39:41;;;;;;;6.50;3.58;;;;;;;;;;4984913;28;20034;-83
2024/02/16 08:42:08;;;;;;;6.93;3.55;;;;;;;;;;4963374;28;20432;-83
2024/02/16 08:44:34;;;;;;;5.63;3.63;;;;;;;;;;4986447;28;20026;-85
2024/02/16 08:47:00;;;;;;;9.70;3.92;;;;;;;;;;4979719;28;20077;-85
2024/02/16 08:49:25;;;;;;;10.43;3.80;;;;;;;;;;4966275;28;20057;-85
2024/02/16 08:51:51;;;;;;;6.53;3.30;;;;;;;;;;4977642;28;20113;-83
2024/02/16 08:54:18;;;;;;;7.07;3.75;;;;;;;;;;4983090;28;20387;-83
2024/02/16 08:56:44;;;;;;;7.43;3.63;;;;;;;;;;4960414;28;20121;-83
2024/02/16 08:59:10;;;;;;;7.28;3.92;;;;;;;;;;4987604;28;20026;-85
2024/02/16 09:01:37;;;;;;;8.90;4.00;;;;;;;;;;4978298;28;20049;-81
2024/02/16 09:04:03;;;;;;;7.38;3.80;;;;;;;;;;4966019;28;20038;-79
2024/02/16 09:06:29;;;;;;;8.27;3.95;;;;;;;;;;4979585;28;20380;-80
2024/02/16 09:08:55;;;;;;;7.28;3.80;;;;;;;;;;4984554;28;20081;-79
2024/02/16 09:11:22;;;;;;;7.22;3.88;;;;;;;;;;4989527;28;20053;-79
2024/02/16 09:13:47;;;;;;;10.25;4.22;;;;;;;;;;4967206;28;20364;-79
2024/02/16 09:16:13;;;;;;;7.72;3.97;;;;;;;;;;4964512;28;20519;-79
2024/02/16 09:18:38;;;;;;;7.32;4.40;;;;;;;;;;4979062;28;20053;-79
2024/02/16 09:21:05;;;;;;;11.95;4.82;;;;;;;;;;4982240;28;20084;-80
2024/02/16 09:23:31;;;;;;;8.82;4.10;;;;;;;;;;4965057;28;20042;-80
2024/02/16 09:25:57;;;;;;;7.30;4.25;;;;;;;;;;4960710;28;20018;-79
2024/02/16 09:28:22;;;;;;;8.02;4.03;;;;;;;;;;4964147;28;20034;-80
2024/02/16 09:30:47;;;;;;;8.00;4.25;;;;;;;;;;4978044;28;20848;-80
2024/02/16 09:33:16;;;;;;;7.20;4.28;;;;;;;;;;4968187;28;20030;-80
2024/02/16 09:35:41;;;;;;;8.02;4.45;;;;;;;;;;4961678;28;20431;-80
2024/02/16 09:38:08;;;;;;;8.10;3.92;;;;;;;;;;4979238;28;20027;-80
2024/02/16 09:40:34;;;;;;;9.43;4.40;;;;;;;;;;4976887;28;20037;-80
2024/02/16 09:42:59;;;;;;;7.65;4.10;;;;;;;;;;4975173;28;20066;-80
2024/02/16 09:45:25;;;;;;;8.02;4.15;;;;;;;;;;4980446;28;20382;-80
2024/02/16 09:47:54;;;;;;;7.75;4.40;;;;;;;;;;4964314;28;20084;-80
2024/02/16 09:50:20;;;;;;;7.07;4.22;;;;;;;;;;4966598;28;20030;-80
2024/02/16 09:52:48;;;;;;;7.43;3.83;;;;;;;;;;4963082;28;20027;-80
2024/02/16 09:55:15;;;;;;;7.05;4.13;;;;;;;;;;4984861;28;20057;-80
2024/02/16 09:57:41;;;;;;;9.52;4.70;;;;;;;;;;4978646;28;20022;-80
2024/02/16 10:00:09;;;;;;;6.82;4.10;;;;;;;;;;4979830;28;20032;-80
2024/02/16 10:02:44;;;;;;;9.63;4.35;;;;;;;;;;4965032;28;20039;-80
2024/02/16 10:05:30;;;;;;;9.55;4.10;;;;;;;;;;4977345;28;20084;-80
2024/02/16 10:07:56;;;;;;;10.07;3.90;;;;;;;;;;4961050;28;20031;-80
2024/02/16 10:10:32;;;;;;;9.73;4.65;;;;;;;;;;4966330;28;20030;-81
2024/02/16 10:13:05;;;;;;;7.80;4.47;;;;;;;;;;4976411;28;20389;-81
2024/02/16 10:15:31;;;;;;;8.90;4.85;;;;;;;;;;4982706;28;20055;-81
2024/02/16 10:18:00;;;;;;;9.13;4.82;;;;;;;;;;4981869;28;20129;-81
2024/02/16 10:20:26;;;;;;;7.07;4.50;;;;;;;;;;4960226;28;20137;-81
2024/02/16 10:23:04;;;;;;;10.20;5.15;;;;;;;;;;4969707;28;20113;-81
2024/02/16 10:25:30;;;;;;;9.13;4.75;;;;;;;;;;4962213;28;20026;-81
2024/02/16 10:27:58;;;;;;;7.72;4.60;;;;;;;;;;4981134;28;20027;-81
2024/02/16 10:30:28;;;;;;;8.10;4.80;;;;;;;;;;4959737;28;20117;-81
2024/02/16 10:32:54;;;;;;;7.10;4.57;;;;;;;;;;4972955;28;20064;-81
2024/02/16 10:35:22;;;;;;;11.95;4.97;;;;;;;;;;4979220;28;20112;-81
2024/02/16 10:37:48;;;;;;;10.45;5.18;;;;;;;;;;4961011;28;20092;-81
2024/02/16 10:40:17;;;;;;;11.13;5.45;;;;;;;;;;4956815;28;20031;-81
2024/02/16 10:42:45;;;;;;;10.25;4.95;;;;;;;;;;4958868;28;20038;-81
2024/02/16 10:45:13;;;;;;;8.50;4.97;;;;;;;;;;4981132;28;20034;-81
2024/02/16 10:47:39;;;;;;;8.10;5.10;;;;;;;;;;4977066;28;20033;-81
2024/02/16 10:50:05;;;;;;;9.80;5.53;;;;;;;;;;4979505;28;20030;-81
2024/02/16 10:52:31;;;;;;;9.02;5.68;;;;;;;;;;4981873;28;20615;-81
2024/02/16 10:54:57;;;;;;;7.95;5.28;;;;;;;;;;4984376;28;20042;-81
2024/02/16 10:57:24;;;;;;;9.77;5.47;;;;;;;;;;4980972;28;20073;-81
2024/02/16 10:59:54;;;;;;;11.80;6.30;;;;;;;;;;4971765;28;20094;-81
2024/02/16 11:02:19;;;;;;;12.05;5.43;;;;;;;;;;4969225;28;20500;-81
2024/02/16 11:04:49;;;;;;;8.98;5.60;;;;;;;;;;4957332;28;20043;-81
2024/02/16 11:07:18;;;;;;;9.20;5.70;;;;;;;;;;4971870;28;20058;-81
2024/02/16 11:09:45;;;;;;;10.32;6.55;;;;;;;;;;4960401;28;20084;-81
2024/02/16 11:12:13;;;;;;;11.05;6.75;;;;;;;;;;4963262;28;20030;-80
2024/02/16 11:14:44;;;;;;;10.52;5.82;;;;;;;;;;4977768;28;20034;-80
2024/02/16 11:17:15;;;;;;;12.18;6.53;;;;;;;;;;4965674;28;20039;-80
2024/02/16 11:19:48;;;;;;;11.32;6.45;;;;;;;;;;4978685;28;20121;-80
2024/02/16 11:22:17;;;;;;;10.60;6.20;;;;;;;;;;4965212;28;20066;-79
2024/02/16 11:24:48;;;;;;;9.20;6.40;;;;;;;;;;4976877;28;20027;-80
2024/02/16 11:27:18;;;;;;;11.27;6.47;;;;;;;;;;4988772;28;20034;-79
2024/02/16 11:29:44;;;;;;;9.57;6.50;;;;;;;;;;4978200;28;20062;-79
2024/02/16 11:32:10;;;;;;;10.60;7.15;;;;;;;;;;4963142;28;20506;-79
2024/02/16 11:34:37;;;;;;;10.90;6.53;;;;;;;;;;4975322;28;20030;-80
2024/02/16 11:37:04;;;;;;;10.70;8.10;;;;;;;;;;4982616;28;20065;-80
2024/02/16 11:39:31;;;;;;;12.10;7.88;;;;;;;;;;4981625;28;20038;-80
2024/02/16 11:42:04;;;;;;;12.50;7.93;;;;;;;;;;4958726;28;20038;-80
2024/02/16 11:44:33;;;;;;;11.63;8.02;;;;;;;;;;4978134;28;20213;-80
2024/02/16 11:47:00;;;;;;;11.10;7.53;;;;;;;;;;4976256;28;20030;-80
2024/02/16 11:49:28;;;;;;;11.35;7.70;;;;;;;;;;4984775;28;20068;-80
2024/02/16 11:51:53;;;;;;;11.43;7.30;;;;;;;;;;4960463;28;20031;-80
2024/02/16 11:54:19;;;;;;;9.73;7.30;;;;;;;;;;4956101;28;20030;-80
2024/02/16 11:56:51;;;;;;;11.10;7.32;;;;;;;;;;4955553;28;20042;-80
2024/02/16 11:59:17;;;;;;;9.32;6.63;;;;;;;;;;4976028;28;20022;-80
2024/02/16 12:01:54;;;;;;;11.65;6.30;;;;;;;;;;4977977;28;20539;-80
2024/02/16 12:04:26;;;;;;;8.10;6.28;;;;;;;;;;4977806;28;20065;-80
2024/02/16 12:06:58;;;;;;;10.43;7.00;;;;;;;;;;4975680;28;20484;-80
2024/02/16 12:09:24;;;;;;;9.20;6.47;;;;;;;;;;4961179;28;20042;-80
2024/02/16 12:11:52;;;;;;;10.27;6.35;;;;;;;;;;4992124;28;20125;-80
2024/02/16 12:14:18;;;;;;;9.65;6.40;;;;;;;;;;4970454;28;20733;-80
2024/02/16 12:16:48;;;;;;;9.70;6.10;;;;;;;;;;4963346;28;20041;-80
2024/02/16 12:19:14;;;;;;;8.43;6.30;;;;;;;;;;4962826;28;20026;-79
2024/02/16 12:21:40;;;;;;;9.02;6.72;;;;;;;;;;4961362;28;20377;-80
2024/02/16 12:24:06;;;;;;;7.75;6.00;;;;;;;;;;4966504;28;20069;-80
2024/02/16 12:26:31;;;;;;;9.85;5.90;;;;;;;;;;4990577;28;20395;-80
2024/02/16 12:28:56;;;;;;;7.03;5.57;;;;;;;;;;4975164;28;20511;-80
2024/02/16 12:31:22;;;;;;;8.27;5.82;;;;;;;;;;4975337;28;20065;-83
2024/02/16 12:33:48;;;;;;;8.60;5.82;;;;;;;;;;4976974;28;20034;-83
2024/02/16 12:36:13;;;;;;;8.50;5.97;;;;;;;;;;4967770;28;20507;-83
2024/02/16 12:38:40;;;;;;;7.85;6.00;;;;;;;;;;4966024;28;20043;-83
2024/02/16 12:41:06;;;;;;;6.88;5.90;;;;;;;;;;4967662;28;20814;-83
2024/02/16 12:43:31;;;;;;;7.85;5.88;;;;;;;;;;4987449;28;20033;-83
2024/02/16 12:45:57;;;;;;;10.15;6.75;;;;;;;;;;4979814;28;20034;-83
2024/02/16 12:48:23;;;;;;;8.05;6.68;;;;;;;;;;4961582;28;20037;-83
2024/02/16 12:50:49;;;;;;;10.45;6.95;;;;;;;;;;4981809;28;20068;-83
2024/02/16 12:53:15;;;;;;;9.57;7.32;;;;;;;;;;4975106;28;20030;-83
2024/02/16 12:55:40;;;;;;;10.77;7.82;;;;;;;;;;4974239;28;20026;-83
2024/02/16 12:58:06;;;;;;;11.38;8.48;;;;;;;;;;4959781;28;20518;-83
2024/02/16 13:00:31;;;;;;;13.68;9.13;;;;;;;;;;4981247;28;20531;-83
2024/02/16 13:02:56;;;;;;;13.52;9.25;;;;;;;;;;4967407;28;20476;-83
2024/02/16 13:05:22;;;;;;;13.60;9.57;;;;;;;;;;4979956;28;20182;-83
2024/02/16 13:07:47;;;;;;;15.95;9.70;;;;;;;;;;4960876;28;20208;-83
2024/02/16 13:10:13;;;;;;;12.18;8.80;;;;;;;;;;4979333;28;20459;-83
2024/02/16 13:12:39;;;;;;;13.23;8.80;;;;;;;;;;4972404;28;20503;-83
2024/02/16 13:15:06;;;;;;;12.50;8.32;;;;;;;;;;4970436;28;20065;-83
2024/02/16 13:17:32;;;;;;;12.20;8.48;;;;;;;;;;4957999;28;20018;-83
2024/02/16 13:20:06;;;;;;;11.07;8.05;;;;;;;;;;4983767;28;20404;-83
2024/02/16 13:22:32;;;;;;;11.07;6.85;;;;;;;;;;4987833;28;20022;-84
2024/02/16 13:24:57;;;;;;;8.43;5.80;;;;;;;;;;4991310;28;20029;-83
2024/02/16 13:27:22;;;;;;;8.00;5.20;;;;;;;;;;4990674;28;20026;-83
2024/02/16 13:29:48;;;;;;;7.25;4.72;;;;;;;;;;4977136;28;20387;-83
2024/02/16 13:32:13;;;;;;;6.32;4.40;;;;;;;;;;4966256;28;20512;-83
2024/02/16 13:34:39;;;;;;;5.78;3.90;;;;;;;;;;4977511;28;20030;-83
2024/02/16 13:37:05;;;;;;;6.20;3.88;;;;;;;;;;4981396;28;20034;-83
2024/02/16 13:39:30;;;;;;;5.95;4.03;;;;;;;;;;4979093;28;20030;-83
2024/02/16 13:41:56;;;;;;;5.38;3.40;;;;;;;;;;4987460;28;20462;-80
2024/02/16 13:44:23;;;;;;;4.95;3.80;;;;;;;;;;4977621;28;20032;-80
2024/02/16 13:46:48;;;;;;;5.70;3.53;;;;;;;;;;4970323;28;20049;-80
2024/02/16 13:49:16;;;;;;;6.38;3.60;;;;;;;;;;4982328;28;20461;-80
2024/02/16 13:51:42;;;;;;;5.35;3.80;;;;;;;;;;4976295;28;20072;-83
2024/02/16 13:54:08;;;;;;;5.97;3.85;;;;;;;;;;4975044;28;20419;-82
2024/02/16 13:56:35;;;;;;;5.85;4.22;;;;;;;;;;4983356;28;20030;-83
2024/02/16 13:59:01;;;;;;;6.72;4.30;;;;;;;;;;4968092;28;20041;-83
2024/02/16 14:01:27;;;;;;;6.22;4.57;;;;;;;;;;4972561;28;20033;-83
2024/02/16 14:03:54;;;;;;;7.75;5.00;;;;;;;;;;4992457;28;20062;-83
2024/02/16 14:06:20;;;;;;;6.72;4.63;;;;;;;;;;4986667;28;20030;-82
2024/02/16 14:08:47;;;;;;;7.35;5.63;;;;;;;;;;4976712;28;20053;-83
2024/02/16 14:11:13;;;;;;;6.78;4.88;;;;;;;;;;4974685;28;20164;-83
2024/02/16 14:13:38;;;;;;;7.28;4.90;;;;;;;;;;4964014;28;20455;-83
2024/02/16 14:16:04;;;;;;;6.40;5.03;;;;;;;;;;4980400;28;20030;-83
2024/02/16 14:18:29;;;;;;;6.40;5.00;;;;;;;;;;4992522;28;20026;-83
2024/02/16 14:20:55;;;;;;;9.23;5.22;;;;;;;;;;4989504;28;20026;-83
2024/02/16 14:23:20;;;;;;;6.95;5.07;;;;;;;;;;4978899;28;20066;-83
2024/02/16 14:25:47;;;;;;;6.65;5.00;;;;;;;;;;4980822;28;20018;-82
2024/02/16 14:28:12;;;;;;;7.05;5.20;;;;;;;;;;4986575;28;20117;-83
2024/02/16 14:30:38;;;;;;;6.90;4.95;;;;;;;;;;4993295;28;20420;-82
2024/02/16 14:33:04;;;;;;;6.20;4.53;;;;;;;;;;4980701;28;20579;-83
2024/02/16 14:35:31;;;;;;;6.72;4.43;;;;;;;;;;4968667;28;20117;-83
2024/02/16 14:37:57;;;;;;;6.22;4.28;;;;;;;;;;4967315;28;20027;-82
2024/02/16 14:40:23;;;;;;;5.55;4.20;;;;;;;;;;4976333;28;20082;-83
2024/02/16 14:42:48;;;;;;;7.15;4.38;;;;;;;;;;4973731;28;20026;-83
2024/02/16 14:45:20;;;;;;;6.03;4.32;;;;;;;;;;4975203;28;20384;-83
2024/02/16 14:47:46;;;;;;;7.55;3.95;;;;;;;;;;4996254;28;20015;-82
2024/02/16 14:50:12;;;;;;;5.40;3.65;;;;;;;;;;4983895;28;20080;-82
2024/02/16 14:52:39;;;;;;;7.57;4.05;;;;;;;;;;4979147;28;20104;-80
2024/02/16 14:55:09;;;;;;;5.35;3.90;;;;;;;;;;4994152;28;20035;-80
2024/02/16 14:57:38;;;;;;;6.68;4.03;;;;;;;;;;4984122;28;20069;-80
2024/02/16 15:00:04;;;;;;;6.05;4.18;;;;;;;;;;4977095;28;20023;-79
2024/02/16 15:02:29;;;;;;;5.70;3.75;;;;;;;;;;4976164;28;20026;-80
2024/02/16 15:04:54;;;;;;;6.38;4.13;;;;;;;;;;4987123;28;20061;-80
2024/02/16 15:07:20;;;;;;;7.22;4.55;;;;;;;;;;4983857;28;20564;-80
2024/02/16 15:09:45;;;;;;;5.93;4.50;;;;;;;;;;4980026;28;20396;-80
2024/02/16 15:12:11;;;;;;;5.13;4.15;;;;;;;;;;4991752;28;20117;-79
2024/02/16 15:14:36;;;;;;;5.90;4.50;;;;;;;;;;4990632;28;20353;-78
2024/02/16 15:17:02;;;;;;;6.50;4.05;;;;;;;;;;4987418;28;20508;-80
2024/02/16 15:19:28;;;;;;;6.72;4.18;;;;;;;;;;4986479;28;20069;-80
2024/02/16 15:21:53;;;;;;;5.93;3.67;;;;;;;;;;4994049;28;20050;-80
2024/02/16 15:24:19;;;;;;;5.18;4.18;;;;;;;;;;4981230;28;20369;-79
2024/02/16 15:26:44;;;;;;;6.80;4.13;;;;;;;;;;4979824;28;20946;-80
2024/02/16 15:29:10;;;;;;;10.18;4.97;;;;;;;;;;4988543;28;20022;-80
2024/02/16 15:31:35;;;;;;;7.32;4.90;;;;;;;;;;4980553;28;20026;-80
2024/02/16 15:34:01;;;;;;;7.07;5.20;;;;;;;;;;4971886;28;20026;-80
2024/02/16 15:36:27;;;;;;;6.25;5.15;;;;;;;;;;4971114;28;20027;-79
2024/02/16 15:38:52;;;;;;;9.80;5.22;;;;;;;;;;4974189;28;20133;-80
2024/02/16 15:41:18;;;;;;;9.90;5.53;;;;;;;;;;4975281;28;20403;-80
2024/02/16 15:43:43;;;;;;;8.75;5.10;;;;;;;;;;4987833;28;20397;-80
2024/02/16 15:46:08;;;;;;;8.27;5.15;;;;;;;;;;4974998;28;20026;-80
2024/02/16 15:48:34;;;;;;;8.65;5.45;;;;;;;;;;4995028;28;20037;-80
2024/02/16 15:50:59;;;;;;;9.40;5.57;;;;;;;;;;4979196;28;20089;-80
2024/02/16 15:53:25;;;;;;;8.27;5.32;;;;;;;;;;4995332;28;20034;-80
2024/02/16 15:55:51;;;;;;;10.27;6.05;;;;;;;;;;4966437;28;20045;-80
2024/02/16 15:58:16;;;;;;;9.55;5.72;;;;;;;;;;4985564;28;20407;-80
2024/02/16 16:00:42;;;;;;;9.68;6.30;;;;;;;;;;4987462;28;20031;-80
2024/02/16 16:03:09;;;;;;;9.05;6.13;;;;;;;;;;4980796;28;20506;-80
2024/02/16 16:05:35;;;;;;;10.15;6.50;;;;;;;;;;4988512;28;20049;-80
2024/02/16 16:08:01;;;;;;;7.22;6.05;;;;;;;;;;4975495;28;20030;-80
2024/02/16 16:10:26;;;;;;;8.43;6.20;;;;;;;;;;4956011;28;20452;-80
2024/02/16 16:12:52;;;;;;;8.15;5.93;;;;;;;;;;4976561;28;20035;-84
2024/02/16 16:15:17;;;;;;;11.70;6.80;;;;;;;;;;4973950;28;20082;-84
2024/02/16 16:17:46;;;;;;;7.85;6.75;;;;;;;;;;4979370;28;20525;-83
2024/02/16 16:20:11;;;;;;;9.90;7.28;;;;;;;;;;4982879;28;20033;-83
2024/02/16 16:22:37;;;;;;;8.98;7.70;;;;;;;;;;4977985;28;20048;-80
2024/02/16 16:25:03;;;;;;;9.50;7.25;;;;;;;;;;4977195;28;20034;-80
2024/02/16 16:27:29;;;;;;;9.65;8.00;;;;;;;;;;4963182;28;20050;-80
2024/02/16 16:29:55;;;;;;;10.13;8.10;;;;;;;;;;4980614;28;20030;-80
2024/02/16 16:32:20;;;;;;;11.52;8.38;;;;;;;;;;4964923;28;20101;-80
2024/02/16 16:34:46;;;;;;;10.40;8.52;;;;;;;;;;4971762;28;20690;-80
2024/02/16 16:37:12;;;;;;;11.63;8.65;;;;;;;;;;4975397;28;20024;-80